Time;durP1;ratioP1;P1;durP2;ratioP2;P2;SDS_P1;SDS_P2;PMS_P1;PMS_P2;Temp;Humidity;BMP_temperature;BMP_pressure;BME280_temperature;BME280_humidity;BME280_pressure;Samples;Min_cycle;Max_cycle;Signal;HPM_P1;HPM_P2
2022/10/24 00:02:12;;;;;;;0.10;0.10;;;;;;;;;;4970078;28;20523;-78
2022/10/24 00:04:40;;;;;;;0.10;0.10;;;;;;;;;;4972276;28;20420;-78
2022/10/24 00:07:07;;;;;;;0.10;0.10;;;;;;;;;;4992665;28;20416;-78
2022/10/24 00:09:33;;;;;;;0.20;0.20;;;;;;;;;;4976422;28;20431;-78
2022/10/24 00:11:59;;;;;;;0.80;0.50;;;;;;;;;;4977320;28;20906;-78
2022/10/24 00:14:26;;;;;;;0.10;0.10;;;;;;;;;;4976386;28;20420;-78
2022/10/24 00:16:52;;;;;;;0.10;0.10;;;;;;;;;;4976281;28;20430;-78
2022/10/24 00:19:18;;;;;;;0.20;0.17;;;;;;;;;;4976184;28;20411;-79
2022/10/24 00:21:44;;;;;;;0.20;0.20;;;;;;;;;;4975502;28;20408;-78
2022/10/24 00:24:10;;;;;;;0.10;0.10;;;;;;;;;;4976157;28;20430;-78
2022/10/24 00:26:37;;;;;;;0.10;0.10;;;;;;;;;;4977455;28;20416;-77
2022/10/24 00:29:03;;;;;;;0.35;0.30;;;;;;;;;;4977516;28;20447;-78
2022/10/24 00:31:29;;;;;;;0.10;0.10;;;;;;;;;;4976484;28;20404;-79
2022/10/24 00:33:55;;;;;;;0.10;0.10;;;;;;;;;;4976293;28;20416;-78
2022/10/24 00:36:22;;;;;;;0.10;0.10;;;;;;;;;;4976610;28;20430;-78
2022/10/24 00:38:49;;;;;;;0.10;0.10;;;;;;;;;;4976136;28;20415;-78
2022/10/24 00:41:17;;;;;;;0.10;0.10;;;;;;;;;;4976128;28;20467;-78
2022/10/24 00:43:44;;;;;;;0.00;0.00;;;;;;;;;;4976672;28;20596;-78
2022/10/24 00:46:10;;;;;;;0.10;0.10;;;;;;;;;;4977151;28;20414;-78
2022/10/24 00:48:54;;;;;;;0.10;0.10;;;;;;;;;;4977493;28;20414;-79
2022/10/24 00:51:23;;;;;;;0.20;0.20;;;;;;;;;;4977730;28;20396;-78
2022/10/24 00:53:51;;;;;;;0.10;0.10;;;;;;;;;;4976746;28;20404;-78
2022/10/24 00:56:18;;;;;;;0.10;0.10;;;;;;;;;;4991836;28;20560;-78
2022/10/24 00:58:44;;;;;;;0.10;0.10;;;;;;;;;;4976038;28;20416;-78
2022/10/24 01:01:11;;;;;;;0.15;0.15;;;;;;;;;;4992516;28;20461;-78
2022/10/24 01:03:37;;;;;;;0.13;0.13;;;;;;;;;;4975144;28;20438;-77
2022/10/24 01:06:15;;;;;;;0.50;0.30;;;;;;;;;;4974415;28;20408;-78
2022/10/24 01:08:48;;;;;;;0.10;0.10;;;;;;;;;;4976852;28;20423;-78
2022/10/24 01:11:14;;;;;;;0.10;0.10;;;;;;;;;;4976194;28;20479;-78
2022/10/24 01:13:55;;;;;;;0.10;0.10;;;;;;;;;;4976970;28;20635;-77
2022/10/24 01:16:27;;;;;;;0.10;0.10;;;;;;;;;;4975495;28;20412;-77
2022/10/24 01:18:58;;;;;;;0.10;0.10;;;;;;;;;;4973881;28;20755;-78
2022/10/24 01:21:32;;;;;;;0.10;0.10;;;;;;;;;;4974416;28;20427;-78
2022/10/24 01:24:16;;;;;;;0.10;0.10;;;;;;;;;;4971985;28;20434;-77
2022/10/24 01:27:05;;;;;;;0.30;0.30;;;;;;;;;;4973381;28;20416;-77
2022/10/24 01:29:44;;;;;;;0.20;0.20;;;;;;;;;;4973607;28;20408;-78
2022/10/24 01:32:10;;;;;;;0.20;0.20;;;;;;;;;;4973504;28;20407;-77
2022/10/24 01:34:44;;;;;;;0.10;0.10;;;;;;;;;;4973908;28;20902;-78
2022/10/24 01:37:17;;;;;;;0.00;0.00;;;;;;;;;;4973240;28;20416;-78
2022/10/24 01:39:48;;;;;;;0.10;0.10;;;;;;;;;;4973294;28;20420;-78
2022/10/24 01:42:15;;;;;;;0.10;0.10;;;;;;;;;;4972189;28;20440;-78
2022/10/24 01:44:48;;;;;;;0.60;0.60;;;;;;;;;;4972577;28;20470;-77
2022/10/24 01:47:16;;;;;;;0.10;0.10;;;;;;;;;;4973045;28;20899;-77
2022/10/24 01:49:45;;;;;;;0.10;0.10;;;;;;;;;;4973912;28;20419;-77
2022/10/24 01:52:13;;;;;;;0.10;0.10;;;;;;;;;;4972919;28;20408;-78
2022/10/24 01:54:40;;;;;;;0.10;0.10;;;;;;;;;;4973005;28;20427;-79
2022/10/24 01:57:07;;;;;;;0.10;0.10;;;;;;;;;;4973869;28;20412;-78
2022/10/24 01:59:33;;;;;;;0.10;0.10;;;;;;;;;;4972889;28;20416;-79
2022/10/24 02:02:08;;;;;;;0.10;0.10;;;;;;;;;;4972827;28;20495;-78
2022/10/24 02:04:35;;;;;;;0.10;0.10;;;;;;;;;;4972287;28;20412;-78
2022/10/24 02:07:03;;;;;;;0.15;0.15;;;;;;;;;;4972985;28;20416;-77
2022/10/24 02:09:30;;;;;;;0.10;0.10;;;;;;;;;;4973250;28;20408;-78
2022/10/24 02:11:57;;;;;;;0.10;0.10;;;;;;;;;;4972353;28;20494;-80
2022/10/24 02:14:25;;;;;;;0.10;0.10;;;;;;;;;;4972377;28;20412;-77
2022/10/24 02:16:51;;;;;;;0.10;0.10;;;;;;;;;;4972906;28;20496;-77
2022/10/24 02:19:18;;;;;;;0.10;0.10;;;;;;;;;;4972208;28;20839;-78
2022/10/24 02:21:49;;;;;;;0.30;0.30;;;;;;;;;;4989035;28;20459;-78
2022/10/24 02:24:17;;;;;;;0.10;0.10;;;;;;;;;;4971870;28;20435;-78
2022/10/24 02:26:48;;;;;;;0.10;0.10;;;;;;;;;;4971821;28;20500;-78
2022/10/24 02:29:17;;;;;;;0.10;0.10;;;;;;;;;;4969937;28;20495;-78
2022/10/24 02:31:46;;;;;;;0.30;0.30;;;;;;;;;;4971586;28;20412;-78
2022/10/24 02:34:13;;;;;;;0.70;0.50;;;;;;;;;;4971623;28;20749;-78
2022/10/24 02:36:39;;;;;;;0.40;0.40;;;;;;;;;;4971585;28;20767;-78
2022/10/24 02:39:07;;;;;;;1.70;0.50;;;;;;;;;;4971238;28;20484;-77
2022/10/24 02:41:35;;;;;;;1.52;1.35;;;;;;;;;;4972168;28;20430;-78
2022/10/24 02:44:02;;;;;;;1.10;0.60;;;;;;;;;;4970782;28;20493;-77
2022/10/24 02:46:29;;;;;;;0.10;0.10;;;;;;;;;;4972465;28;20427;-78
2022/10/24 02:48:59;;;;;;;0.10;0.10;;;;;;;;;;4972326;28;20419;-78
2022/10/24 02:51:36;;;;;;;0.10;0.10;;;;;;;;;;4971855;28;20412;-78
2022/10/24 02:54:03;;;;;;;0.10;0.10;;;;;;;;;;4971784;28;20408;-78
2022/10/24 02:56:29;;;;;;;0.10;0.10;;;;;;;;;;4972374;28;20419;-77
2022/10/24 02:58:55;;;;;;;0.03;0.03;;;;;;;;;;4970424;28;20516;-78
2022/10/24 03:01:21;;;;;;;0.10;0.10;;;;;;;;;;4971065;28;20413;-78
2022/10/24 03:03:47;;;;;;;0.10;0.10;;;;;;;;;;4971409;28;20439;-77
2022/10/24 03:06:13;;;;;;;0.10;0.10;;;;;;;;;;4971835;28;20439;-77
2022/10/24 03:08:40;;;;;;;0.50;0.50;;;;;;;;;;4971076;28;20519;-78
2022/10/24 03:11:06;;;;;;;0.10;0.10;;;;;;;;;;4972175;28;20787;-78
2022/10/24 03:13:32;;;;;;;0.10;0.10;;;;;;;;;;4971399;28;20487;-78
2022/10/24 03:15:58;;;;;;;0.10;0.10;;;;;;;;;;4972290;28;20404;-78
2022/10/24 03:18:24;;;;;;;0.20;0.20;;;;;;;;;;4973499;28;20416;-78
2022/10/24 03:20:50;;;;;;;0.10;0.10;;;;;;;;;;4973201;28;20501;-78
2022/10/24 03:23:18;;;;;;;0.30;0.30;;;;;;;;;;4971962;28;20464;-78
2022/10/24 03:25:44;;;;;;;0.10;0.10;;;;;;;;;;4971926;28;20412;-78
2022/10/24 03:28:10;;;;;;;0.10;0.10;;;;;;;;;;4971277;28;20943;-78
2022/10/24 03:30:36;;;;;;;2.80;0.50;;;;;;;;;;4970919;28;20756;-78
2022/10/24 03:33:02;;;;;;;0.10;0.10;;;;;;;;;;4971507;28;20474;-78
2022/10/24 03:35:28;;;;;;;0.10;0.10;;;;;;;;;;4971107;28;20412;-78
2022/10/24 03:37:54;;;;;;;0.10;0.10;;;;;;;;;;4971909;28;20408;-78
2022/10/24 03:40:20;;;;;;;0.10;0.10;;;;;;;;;;4970350;28;20431;-78
2022/10/24 03:42:46;;;;;;;0.10;0.10;;;;;;;;;;4970548;28;20504;-78
2022/10/24 03:45:13;;;;;;;0.10;0.10;;;;;;;;;;4970868;28;20400;-78
2022/10/24 03:47:39;;;;;;;0.10;0.10;;;;;;;;;;4970829;28;20736;-78
2022/10/24 03:50:05;;;;;;;0.10;0.10;;;;;;;;;;4968463;28;20755;-78
2022/10/24 03:52:31;;;;;;;0.10;0.10;;;;;;;;;;4926715;28;20408;-78
2022/10/24 03:54:57;;;;;;;0.17;0.17;;;;;;;;;;4931559;28;20674;-78
2022/10/24 03:57:23;;;;;;;0.10;0.10;;;;;;;;;;4971938;28;20761;-78
2022/10/24 03:59:49;;;;;;;0.20;0.20;;;;;;;;;;4972428;28;20455;-79
2022/10/24 04:02:15;;;;;;;1.60;0.30;;;;;;;;;;4971756;28;20432;-78
2022/10/24 04:04:41;;;;;;;0.20;0.20;;;;;;;;;;4971200;28;20451;-81
2022/10/24 04:07:08;;;;;;;0.15;0.15;;;;;;;;;;4971686;28;20444;-77
2022/10/24 04:09:34;;;;;;;0.00;0.00;;;;;;;;;;4970907;28;20420;-78
2022/10/24 04:12:00;;;;;;;0.10;0.10;;;;;;;;;;4972672;28;20439;-79
2022/10/24 04:14:26;;;;;;;0.10;0.10;;;;;;;;;;4987133;28;20419;-78
2022/10/24 04:16:52;;;;;;;0.30;0.30;;;;;;;;;;4970885;28;20420;-77
2022/10/24 04:19:18;;;;;;;0.20;0.20;;;;;;;;;;4971442;28;20451;-80
2022/10/24 04:21:46;;;;;;;0.10;0.10;;;;;;;;;;4972354;28;20454;-79
2022/10/24 04:24:13;;;;;;;0.10;0.10;;;;;;;;;;4969832;28;20424;-78
2022/10/24 04:26:39;;;;;;;0.10;0.10;;;;;;;;;;4970482;28;20503;-78
2022/10/24 04:29:05;;;;;;;0.10;0.10;;;;;;;;;;4970632;28;20411;-78
2022/10/24 04:31:31;;;;;;;0.10;0.10;;;;;;;;;;4969794;28;20973;-78
2022/10/24 04:33:57;;;;;;;0.10;0.10;;;;;;;;;;4970905;28;20751;-78
2022/10/24 04:36:23;;;;;;;0.10;0.10;;;;;;;;;;4970535;28;20424;-75
2022/10/24 04:38:49;;;;;;;0.10;0.10;;;;;;;;;;4970739;28;20407;-77
2022/10/24 04:41:15;;;;;;;0.10;0.10;;;;;;;;;;4970124;28;20412;-77
2022/10/24 04:43:41;;;;;;;0.00;0.00;;;;;;;;;;4969843;28;20424;-76
2022/10/24 04:46:07;;;;;;;0.10;0.10;;;;;;;;;;4985367;28;20488;-81
2022/10/24 04:48:34;;;;;;;0.10;0.10;;;;;;;;;;4969767;28;20966;-78
2022/10/24 04:51:00;;;;;;;0.10;0.10;;;;;;;;;;4971398;28;20907;-79
2022/10/24 04:53:26;;;;;;;0.40;0.30;;;;;;;;;;4974739;28;20419;-78
2022/10/24 04:55:52;;;;;;;0.40;0.40;;;;;;;;;;4974827;28;20408;-78
2022/10/24 04:58:18;;;;;;;0.10;0.10;;;;;;;;;;4975020;28;20450;-77
2022/10/24 05:00:47;;;;;;;1.30;0.30;;;;;;;;;;4990534;28;20415;-77
2022/10/24 05:03:13;;;;;;;0.10;0.10;;;;;;;;;;4973017;28;20490;-77
2022/10/24 05:05:39;;;;;;;0.00;0.00;;;;;;;;;;4973818;28;20756;-79
2022/10/24 05:08:06;;;;;;;0.10;0.10;;;;;;;;;;4972803;28;20420;-77
2022/10/24 05:10:32;;;;;;;0.10;0.10;;;;;;;;;;4973710;28;20412;-77
2022/10/24 05:12:58;;;;;;;0.00;0.00;;;;;;;;;;4974069;28;20520;-77
2022/10/24 05:15:24;;;;;;;0.10;0.10;;;;;;;;;;4973040;28;20431;-77
2022/10/24 05:17:50;;;;;;;0.20;0.20;;;;;;;;;;4974138;28;20416;-79
2022/10/24 05:20:16;;;;;;;0.10;0.10;;;;;;;;;;4973241;28;20404;-77
2022/10/24 05:22:42;;;;;;;0.30;0.30;;;;;;;;;;4973094;28;20464;-78
2022/10/24 05:25:08;;;;;;;0.10;0.10;;;;;;;;;;4972761;28;20448;-79
2022/10/24 05:27:34;;;;;;;0.10;0.10;;;;;;;;;;4972425;28;20725;-75
2022/10/24 05:30:00;;;;;;;0.10;0.10;;;;;;;;;;4973571;28;20411;-76
2022/10/24 05:32:26;;;;;;;0.10;0.10;;;;;;;;;;4973217;28;20468;-75
2022/10/24 05:34:53;;;;;;;0.10;0.10;;;;;;;;;;4973782;28;20404;-75
2022/10/24 05:37:19;;;;;;;0.10;0.10;;;;;;;;;;4973316;28;20412;-76
2022/10/24 05:39:45;;;;;;;0.10;0.10;;;;;;;;;;4972708;28;20511;-75
2022/10/24 05:42:11;;;;;;;0.10;0.10;;;;;;;;;;4974221;28;20451;-75
2022/10/24 05:44:37;;;;;;;0.13;0.13;;;;;;;;;;4974954;28;20415;-75
2022/10/24 05:47:03;;;;;;;0.10;0.10;;;;;;;;;;4974512;28;20416;-75
2022/10/24 05:49:29;;;;;;;0.10;0.10;;;;;;;;;;4974502;28;20487;-76
2022/10/24 05:51:55;;;;;;;0.10;0.10;;;;;;;;;;4974265;28;20466;-75
2022/10/24 05:54:21;;;;;;;0.00;0.00;;;;;;;;;;4974454;28;20481;-76
2022/10/24 05:56:47;;;;;;;0.10;0.10;;;;;;;;;;4975138;28;20412;-76
2022/10/24 05:59:13;;;;;;;0.10;0.10;;;;;;;;;;4973780;28;20791;-76
2022/10/24 06:01:40;;;;;;;0.10;0.10;;;;;;;;;;4974568;28;20763;-76
2022/10/24 06:04:06;;;;;;;0.10;0.10;;;;;;;;;;4973460;28;20757;-76
2022/10/24 06:06:33;;;;;;;0.10;0.10;;;;;;;;;;4974211;28;20450;-76
2022/10/24 06:08:59;;;;;;;0.10;0.10;;;;;;;;;;4974047;28;20452;-75
2022/10/24 06:11:26;;;;;;;0.10;0.10;;;;;;;;;;4973140;28;20445;-78
2022/10/24 06:13:52;;;;;;;0.10;0.10;;;;;;;;;;4972789;28;20412;-79
2022/10/24 06:16:18;;;;;;;0.70;0.50;;;;;;;;;;4972840;28;20413;-79
2022/10/24 06:18:44;;;;;;;0.15;0.15;;;;;;;;;;4973269;28;20871;-78
2022/10/24 06:21:12;;;;;;;0.10;0.10;;;;;;;;;;4970963;28;20506;-79
2022/10/24 06:23:38;;;;;;;0.10;0.10;;;;;;;;;;4969856;28;20790;-79
2022/10/24 06:26:09;;;;;;;0.10;0.10;;;;;;;;;;4972266;28;20423;-79
2022/10/24 06:28:35;;;;;;;0.00;0.00;;;;;;;;;;4973343;28;20912;-79
2022/10/24 06:31:02;;;;;;;0.10;0.10;;;;;;;;;;4972933;28;20412;-79
2022/10/24 06:33:29;;;;;;;0.10;0.10;;;;;;;;;;4972745;28;20425;-79
2022/10/24 06:35:56;;;;;;;0.00;0.00;;;;;;;;;;4971617;28;20456;-79
2022/10/24 06:38:22;;;;;;;0.10;0.10;;;;;;;;;;4987439;28;20420;-79
2022/10/24 06:40:48;;;;;;;0.00;0.00;;;;;;;;;;4987671;28;20494;-76
2022/10/24 06:43:15;;;;;;;0.10;0.10;;;;;;;;;;4971935;28;20460;-78
2022/10/24 06:45:41;;;;;;;0.10;0.10;;;;;;;;;;4971102;28;20830;-76
2022/10/24 06:48:07;;;;;;;0.10;0.10;;;;;;;;;;4972411;28;20412;-78
2022/10/24 06:50:33;;;;;;;0.10;0.10;;;;;;;;;;4971666;28;20408;-76
2022/10/24 06:52:59;;;;;;;0.10;0.10;;;;;;;;;;4972173;28;20416;-76
2022/10/24 06:55:25;;;;;;;0.10;0.10;;;;;;;;;;4971394;28;20416;-76
2022/10/24 06:57:52;;;;;;;0.10;0.10;;;;;;;;;;4971375;28;20444;-77
2022/10/24 07:00:18;;;;;;;0.30;0.20;;;;;;;;;;4970024;28;20420;-76
2022/10/24 07:02:44;;;;;;;0.10;0.10;;;;;;;;;;4970991;28;20472;-76
2022/10/24 07:05:12;;;;;;;0.10;0.10;;;;;;;;;;4971752;28;20404;-76
2022/10/24 07:07:39;;;;;;;0.10;0.10;;;;;;;;;;4971798;28;20408;-76
2022/10/24 07:10:06;;;;;;;0.10;0.10;;;;;;;;;;4972033;28;20477;-79
2022/10/24 07:12:32;;;;;;;0.10;0.10;;;;;;;;;;4970489;28;20447;-77
2022/10/24 07:14:58;;;;;;;0.10;0.10;;;;;;;;;;4970190;28;20773;-75
2022/10/24 07:17:24;;;;;;;0.20;0.20;;;;;;;;;;4972562;28;20475;-76
2022/10/24 07:19:54;;;;;;;0.10;0.10;;;;;;;;;;4971914;28;20412;-76
2022/10/24 07:22:20;;;;;;;0.20;0.20;;;;;;;;;;4972708;28;20462;-76
2022/10/24 07:24:46;;;;;;;0.10;0.10;;;;;;;;;;4972567;28;20413;-77
2022/10/24 07:27:12;;;;;;;0.10;0.10;;;;;;;;;;4971570;28;21017;-77
2022/10/24 07:29:38;;;;;;;0.10;0.10;;;;;;;;;;4972195;28;20401;-77
2022/10/24 07:32:05;;;;;;;0.10;0.10;;;;;;;;;;4971900;28;20487;-76
2022/10/24 07:34:31;;;;;;;0.30;0.30;;;;;;;;;;4971706;28;20416;-76
2022/10/24 07:36:57;;;;;;;0.10;0.10;;;;;;;;;;4972803;28;20416;-76
2022/10/24 07:39:23;;;;;;;0.10;0.10;;;;;;;;;;4972498;28;20412;-76
2022/10/24 07:41:49;;;;;;;0.20;0.20;;;;;;;;;;4972786;28;20495;-76
2022/10/24 07:44:15;;;;;;;0.15;0.15;;;;;;;;;;4971818;28;20490;-76
2022/10/24 07:46:41;;;;;;;0.80;0.80;;;;;;;;;;4971365;28;20498;-77
2022/10/24 07:49:07;;;;;;;0.10;0.10;;;;;;;;;;4972621;28;20443;-77
2022/10/24 07:51:33;;;;;;;0.10;0.10;;;;;;;;;;4971290;28;20495;-76
2022/10/24 07:53:59;;;;;;;0.10;0.10;;;;;;;;;;4972871;28;20412;-76
2022/10/24 07:56:26;;;;;;;0.10;0.10;;;;;;;;;;4972376;28;20486;-77
2022/10/24 07:58:52;;;;;;;0.10;0.10;;;;;;;;;;4971210;28;20755;-76
2022/10/24 08:01:20;;;;;;;0.10;0.10;;;;;;;;;;4972035;28;20404;-77
2022/10/24 08:03:46;;;;;;;0.10;0.10;;;;;;;;;;4972385;28;20539;-76
2022/10/24 08:06:14;;;;;;;0.10;0.10;;;;;;;;;;4972552;28;20408;-76
2022/10/24 08:08:40;;;;;;;0.10;0.10;;;;;;;;;;4970524;28;20413;-76
2022/10/24 08:11:10;;;;;;;0.10;0.10;;;;;;;;;;4972395;28;20428;-77
2022/10/24 08:13:36;;;;;;;0.10;0.10;;;;;;;;;;4986916;28;20906;-78
2022/10/24 08:16:05;;;;;;;0.10;0.10;;;;;;;;;;4971401;28;20555;-77
2022/10/24 08:18:31;;;;;;;0.10;0.10;;;;;;;;;;4970958;28;20443;-77
2022/10/24 08:21:01;;;;;;;0.10;0.10;;;;;;;;;;4971865;28;20898;-77
2022/10/24 08:23:27;;;;;;;0.10;0.10;;;;;;;;;;4970811;28;20436;-78
2022/10/24 08:25:53;;;;;;;0.30;0.30;;;;;;;;;;4989036;28;20502;-76
2022/10/24 08:28:20;;;;;;;0.10;0.10;;;;;;;;;;4974591;28;20482;-76
2022/10/24 08:30:54;;;;;;;0.30;0.30;;;;;;;;;;4975234;28;20407;-78
2022/10/24 08:33:20;;;;;;;0.10;0.10;;;;;;;;;;4975799;28;20411;-77
2022/10/24 08:35:46;;;;;;;0.10;0.10;;;;;;;;;;4975557;28;20494;-77
2022/10/24 08:38:12;;;;;;;5.00;0.60;;;;;;;;;;4990818;28;20412;-78
2022/10/24 08:40:39;;;;;;;0.10;0.10;;;;;;;;;;4974315;28;20486;-78
2022/10/24 08:43:05;;;;;;;0.10;0.10;;;;;;;;;;4976454;28;20428;-76
2022/10/24 08:45:38;;;;;;;0.10;0.10;;;;;;;;;;4974523;28;20415;-77
2022/10/24 08:48:06;;;;;;;0.10;0.10;;;;;;;;;;4976122;28;20404;-76
2022/10/24 08:50:33;;;;;;;0.20;0.20;;;;;;;;;;4974749;28;20420;-77
2022/10/24 08:53:09;;;;;;;0.10;0.10;;;;;;;;;;4975005;28;20408;-79
2022/10/24 08:55:38;;;;;;;0.10;0.10;;;;;;;;;;4974198;28;20795;-77
2022/10/24 08:58:05;;;;;;;0.10;0.10;;;;;;;;;;4974546;28;20419;-77
2022/10/24 09:00:36;;;;;;;0.10;0.10;;;;;;;;;;4975765;28;20504;-77
2022/10/24 09:03:17;;;;;;;0.10;0.10;;;;;;;;;;4973947;28;20764;-73
2022/10/24 09:05:46;;;;;;;0.10;0.10;;;;;;;;;;4975402;28;20416;-76
2022/10/24 09:08:21;;;;;;;0.10;0.10;;;;;;;;;;4974653;28;20408;-76
2022/10/24 09:10:49;;;;;;;0.10;0.10;;;;;;;;;;4974228;28;20415;-77
2022/10/24 09:13:16;;;;;;;0.10;0.10;;;;;;;;;;4974407;28;20400;-76
2022/10/24 09:15:44;;;;;;;0.10;0.10;;;;;;;;;;4974590;28;20713;-77
2022/10/24 09:18:16;;;;;;;1.60;0.70;;;;;;;;;;4974475;28;20419;-77
2022/10/24 09:20:42;;;;;;;0.10;0.10;;;;;;;;;;4974709;28;20725;-78
2022/10/24 09:23:11;;;;;;;0.10;0.10;;;;;;;;;;4973844;28;20436;-77
2022/10/24 09:25:40;;;;;;;0.10;0.10;;;;;;;;;;4973970;28;20412;-77
2022/10/24 09:28:06;;;;;;;0.10;0.10;;;;;;;;;;4973733;28;20452;-78
2022/10/24 09:30:35;;;;;;;0.10;0.10;;;;;;;;;;4974265;28;20412;-76
2022/10/24 09:33:05;;;;;;;0.20;0.20;;;;;;;;;;4989268;28;20495;-77
2022/10/24 09:35:34;;;;;;;0.25;0.25;;;;;;;;;;4972462;28;20404;-76
2022/10/24 09:38:19;;;;;;;0.10;0.10;;;;;;;;;;4972310;28;20416;-74
2022/10/24 09:40:50;;;;;;;0.10;0.10;;;;;;;;;;4974609;28;20412;-77
2022/10/24 09:43:17;;;;;;;1.30;0.97;;;;;;;;;;4974703;28;20799;-77
2022/10/24 09:45:45;;;;;;;0.13;0.13;;;;;;;;;;4973120;28;20760;-80
2022/10/24 09:48:38;;;;;;;0.10;0.10;;;;;;;;;;4973749;28;20428;-78
2022/10/24 09:51:05;;;;;;;0.40;0.40;;;;;;;;;;4972523;28;20419;-79
2022/10/24 09:53:33;;;;;;;0.20;0.20;;;;;;;;;;4972834;28;20419;-79
2022/10/24 09:56:19;;;;;;;0.10;0.10;;;;;;;;;;4973508;28;20420;-75
2022/10/24 09:58:45;;;;;;;0.10;0.10;;;;;;;;;;4972492;28;20416;-78
2022/10/24 10:01:18;;;;;;;1.20;0.40;;;;;;;;;;4973752;28;20412;-76
2022/10/24 10:03:59;;;;;;;0.10;0.10;;;;;;;;;;4974138;28;20471;-75
2022/10/24 10:06:25;;;;;;;0.20;0.20;;;;;;;;;;4974208;28;20475;-74
2022/10/24 10:08:55;;;;;;;0.20;0.20;;;;;;;;;;4974066;28;20415;-74
2022/10/24 10:11:25;;;;;;;0.10;0.10;;;;;;;;;;4974574;28;20416;-75
2022/10/24 10:13:54;;;;;;;0.80;0.40;;;;;;;;;;4973113;28;20409;-75
2022/10/24 10:16:20;;;;;;;0.10;0.10;;;;;;;;;;4973324;28;20459;-75
2022/10/24 10:18:47;;;;;;;0.10;0.10;;;;;;;;;;4974028;28;20420;-74
2022/10/24 10:21:22;;;;;;;5.40;0.30;;;;;;;;;;4974552;28;20915;-75
2022/10/24 10:23:49;;;;;;;0.10;0.10;;;;;;;;;;4973830;28;20701;-74
2022/10/24 10:26:15;;;;;;;1.20;0.60;;;;;;;;;;4974553;28;20416;-74
2022/10/24 10:28:50;;;;;;;0.20;0.20;;;;;;;;;;4972843;28;20408;-75
2022/10/24 10:31:17;;;;;;;0.38;0.38;;;;;;;;;;4973913;28;20823;-74
2022/10/24 10:33:49;;;;;;;0.80;0.40;;;;;;;;;;4972643;28;20404;-75
2022/10/24 10:36:18;;;;;;;0.10;0.10;;;;;;;;;;4972481;28;20451;-74
2022/10/24 10:38:53;;;;;;;0.20;0.20;;;;;;;;;;4973157;28;20419;-73
2022/10/24 10:41:32;;;;;;;0.10;0.10;;;;;;;;;;4973980;28;20408;-74
2022/10/24 10:44:15;;;;;;;0.40;0.40;;;;;;;;;;4971562;28;20432;-75
2022/10/24 10:46:53;;;;;;;0.30;0.30;;;;;;;;;;4972455;28;20408;-75
2022/10/24 10:49:27;;;;;;;0.50;0.50;;;;;;;;;;4971498;28;20413;-76
2022/10/24 10:51:57;;;;;;;0.10;0.10;;;;;;;;;;4971707;28;20419;-75
2022/10/24 10:54:42;;;;;;;0.10;0.10;;;;;;;;;;4970689;28;20468;-76
2022/10/24 10:57:12;;;;;;;0.10;0.10;;;;;;;;;;4972227;28;20477;-75
2022/10/24 10:59:55;;;;;;;0.10;0.10;;;;;;;;;;4971893;28;20799;-76
2022/10/24 11:02:30;;;;;;;0.30;0.30;;;;;;;;;;4970985;28;20459;-76
2022/10/24 11:05:02;;;;;;;0.10;0.10;;;;;;;;;;4971087;28;20507;-76
2022/10/24 11:07:44;;;;;;;0.10;0.10;;;;;;;;;;4971196;28;20424;-76
2022/10/24 11:10:14;;;;;;;0.40;0.40;;;;;;;;;;4972159;28;20404;-76
2022/10/24 11:12:41;;;;;;;0.10;0.10;;;;;;;;;;4970697;28;20458;-76
2022/10/24 11:15:22;;;;;;;0.10;0.10;;;;;;;;;;4972739;28;20513;-77
2022/10/24 11:17:52;;;;;;;0.10;0.10;;;;;;;;;;4972110;28;20400;-75
2022/10/24 11:20:21;;;;;;;9.25;0.95;;;;;;;;;;4970947;28;20767;-77
2022/10/24 11:22:52;;;;;;;0.10;0.10;;;;;;;;;;4972796;28;20431;-77
2022/10/24 11:25:39;;;;;;;0.10;0.10;;;;;;;;;;4970827;28;20428;-75
2022/10/24 11:28:05;;;;;;;0.25;0.25;;;;;;;;;;4972210;28;20404;-75
2022/10/24 11:30:37;;;;;;;0.10;0.10;;;;;;;;;;4972246;28;20475;-75
2022/10/24 11:33:06;;;;;;;0.10;0.10;;;;;;;;;;4971676;28;20764;-76
2022/10/24 11:35:33;;;;;;;0.30;0.30;;;;;;;;;;4969546;28;20419;-73
2022/10/24 11:38:07;;;;;;;0.10;0.10;;;;;;;;;;4987069;28;20470;-75
2022/10/24 11:40:34;;;;;;;0.10;0.10;;;;;;;;;;4971077;28;20420;-75
2022/10/24 11:43:06;;;;;;;0.10;0.10;;;;;;;;;;4972474;28;20523;-75
2022/10/24 11:45:35;;;;;;;0.10;0.10;;;;;;;;;;4972265;28;20891;-76
2022/10/24 11:48:04;;;;;;;0.10;0.10;;;;;;;;;;4970546;28;20406;-74
2022/10/24 11:50:38;;;;;;;0.10;0.10;;;;;;;;;;4971687;28;20409;-75
2022/10/24 11:53:17;;;;;;;0.10;0.10;;;;;;;;;;4972194;28;20411;-74
2022/10/24 11:55:47;;;;;;;0.17;0.17;;;;;;;;;;4971605;28;20539;-73
2022/10/24 11:58:14;;;;;;;0.10;0.10;;;;;;;;;;4970847;28;20404;-73
2022/10/24 12:00:54;;;;;;;0.10;0.10;;;;;;;;;;4970557;28;20743;-75
2022/10/24 12:03:20;;;;;;;0.10;0.10;;;;;;;;;;4970891;28;20436;-75
2022/10/24 12:05:46;;;;;;;0.10;0.10;;;;;;;;;;4969286;28;20435;-74
2022/10/24 12:08:30;;;;;;;0.95;0.75;;;;;;;;;;4972758;28;20469;-75
2022/10/24 12:11:12;;;;;;;0.30;0.30;;;;;;;;;;4970084;28;20400;-75
2022/10/24 12:13:49;;;;;;;0.00;0.00;;;;;;;;;;4970344;28;20405;-76
2022/10/24 12:16:34;;;;;;;0.10;0.10;;;;;;;;;;4971695;28;20942;-77
2022/10/24 12:19:03;;;;;;;0.45;0.45;;;;;;;;;;4971741;28;20503;-75
2022/10/24 12:21:35;;;;;;;0.20;0.20;;;;;;;;;;4971046;28;20463;-75
2022/10/24 12:24:01;;;;;;;0.10;0.10;;;;;;;;;;4970926;28;20517;-75
2022/10/24 12:26:31;;;;;;;0.10;0.10;;;;;;;;;;4970178;28;20637;-75
2022/10/24 12:28:57;;;;;;;0.10;0.10;;;;;;;;;;4970121;28;21059;-77
2022/10/24 12:31:28;;;;;;;0.23;0.23;;;;;;;;;;4970206;28;20419;-76
2022/10/24 12:34:13;;;;;;;1.50;0.40;;;;;;;;;;4970670;28;20962;-80
2022/10/24 12:36:58;;;;;;;0.10;0.10;;;;;;;;;;4970523;28;20419;-77
2022/10/24 12:39:34;;;;;;;0.10;0.10;;;;;;;;;;4972018;28;20454;-75
2022/10/24 12:42:00;;;;;;;0.20;0.20;;;;;;;;;;4971139;28;20399;-77
2022/10/24 12:44:33;;;;;;;0.10;0.10;;;;;;;;;;4971115;28;20434;-80
2022/10/24 12:46:59;;;;;;;0.10;0.10;;;;;;;;;;4968984;28;20459;-73
2022/10/24 12:49:30;;;;;;;0.10;0.10;;;;;;;;;;4970559;28;20748;-75
2022/10/24 12:51:56;;;;;;;0.10;0.10;;;;;;;;;;4968256;28;20547;-77
2022/10/24 12:54:39;;;;;;;0.10;0.10;;;;;;;;;;4970996;28;20499;-74
2022/10/24 12:57:05;;;;;;;0.10;0.10;;;;;;;;;;4969518;28;20499;-73
2022/10/24 12:59:32;;;;;;;0.10;0.10;;;;;;;;;;4985363;28;20507;-75
2022/10/24 13:02:13;;;;;;;0.30;0.20;;;;;;;;;;4970215;28;20412;-77
2022/10/24 13:04:51;;;;;;;0.10;0.10;;;;;;;;;;4969943;28;20428;-75
2022/10/24 13:07:23;;;;;;;0.13;0.13;;;;;;;;;;4969362;28;20520;-77
2022/10/24 13:09:55;;;;;;;0.10;0.10;;;;;;;;;;4970849;28;20559;-77
2022/10/24 13:12:40;;;;;;;0.40;0.40;;;;;;;;;;4970612;28;20412;-76
2022/10/24 13:15:24;;;;;;;0.10;0.10;;;;;;;;;;4973933;28;20420;-75
2022/10/24 13:18:03;;;;;;;0.10;0.10;;;;;;;;;;4974464;28;20511;-75
2022/10/24 13:20:40;;;;;;;0.10;0.10;;;;;;;;;;4974374;28;20416;-74
2022/10/24 13:23:13;;;;;;;0.10;0.10;;;;;;;;;;4974991;28;20486;-75
2022/10/24 13:25:39;;;;;;;0.10;0.10;;;;;;;;;;4975250;28;20408;-82
2022/10/24 13:28:21;;;;;;;0.10;0.10;;;;;;;;;;4973548;28;20416;-79
2022/10/24 13:30:48;;;;;;;0.10;0.10;;;;;;;;;;4973456;28;20464;-80
2022/10/24 13:33:32;;;;;;;0.10;0.10;;;;;;;;;;4990061;28;20419;-79
2022/10/24 13:36:13;;;;;;;0.10;0.10;;;;;;;;;;4972578;28;20424;-83
2022/10/24 13:38:54;;;;;;;0.10;0.10;;;;;;;;;;4974228;28;20523;-76
2022/10/24 13:41:26;;;;;;;0.00;0.00;;;;;;;;;;4973805;28;20455;-81
2022/10/24 13:43:53;;;;;;;0.10;0.10;;;;;;;;;;4974460;28;20424;-77
2022/10/24 13:46:37;;;;;;;0.10;0.10;;;;;;;;;;4972432;28;20978;-77
2022/10/24 13:49:05;;;;;;;0.10;0.10;;;;;;;;;;4972449;28;20416;-78
2022/10/24 13:51:36;;;;;;;0.20;0.20;;;;;;;;;;4974170;28;20417;-75
2022/10/24 13:54:13;;;;;;;0.30;0.30;;;;;;;;;;4973935;28;20451;-74
2022/10/24 13:56:40;;;;;;;0.20;0.20;;;;;;;;;;4974555;28;20408;-75
2022/10/24 13:59:25;;;;;;;0.10;0.10;;;;;;;;;;4971956;28;20416;-76
2022/10/24 14:01:52;;;;;;;0.20;0.20;;;;;;;;;;4972928;28;20503;-77
2022/10/24 14:04:26;;;;;;;0.10;0.10;;;;;;;;;;4973444;28;20530;-83
2022/10/24 14:06:52;;;;;;;1.00;0.60;;;;;;;;;;4972638;28;20416;-81
2022/10/24 14:09:18;;;;;;;0.40;0.40;;;;;;;;;;4958164;28;20423;-79
2022/10/24 14:11:45;;;;;;;0.10;0.10;;;;;;;;;;4955903;28;20515;-85
2022/10/24 14:14:20;;;;;;;0.10;0.10;;;;;;;;;;4978176;28;20419;-81
2022/10/24 14:16:46;;;;;;;0.10;0.10;;;;;;;;;;4988532;28;20412;-89
2022/10/24 14:19:25;;;;;;;0.08;0.08;;;;;;;;;;4991308;28;20408;-80
2022/10/24 14:21:51;;;;;;;0.10;0.10;;;;;;;;;;4990933;28;20443;-85
2022/10/24 14:24:19;;;;;;;0.20;0.20;;;;;;;;;;4975981;28;20435;-86
2022/10/24 14:26:46;;;;;;;0.10;0.10;;;;;;;;;;4992866;28;20412;-87
2022/10/24 14:29:18;;;;;;;0.10;0.10;;;;;;;;;;4993598;28;20424;-87
2022/10/24 14:31:45;;;;;;;0.10;0.10;;;;;;;;;;4976907;28;20424;-83
2022/10/24 14:34:19;;;;;;;0.23;0.23;;;;;;;;;;4981328;28;20460;-84
2022/10/24 14:36:45;;;;;;;0.00;0.00;;;;;;;;;;4974965;28;20427;-81
2022/10/24 14:39:17;;;;;;;0.30;0.10;;;;;;;;;;4997953;28;20408;-83
2022/10/24 14:41:43;;;;;;;0.10;0.10;;;;;;;;;;4989732;28;20431;-78
2022/10/24 14:44:13;;;;;;;0.60;0.50;;;;;;;;;;4980771;28;20412;-84
2022/10/24 14:46:39;;;;;;;0.10;0.10;;;;;;;;;;4977028;28;20416;-79
2022/10/24 14:49:20;;;;;;;0.10;0.10;;;;;;;;;;4978726;28;20427;-90
2022/10/24 14:51:51;;;;;;;0.10;0.10;;;;;;;;;;4973079;28;20767;-90
2022/10/24 14:54:18;;;;;;;0.20;0.20;;;;;;;;;;4971353;28;20471;-83
2022/10/24 14:56:45;;;;;;;0.10;0.10;;;;;;;;;;4971018;28;20609;-85